sensor_id;sensor_type;location;lat;lon;timestamp;P1;durP1;ratioP1;P2;durP2;ratioP2
3959;SDS011;1994;48.640;8.894;2022-09-25T00:01:36;15.43;;;10.47;;
3959;SDS011;1994;48.640;8.894;2022-09-25T00:04:02;18.90;;;10.60;;
3959;SDS011;1994;48.640;8.894;2022-09-25T00:06:28;14.17;;;9.40;;
3959;SDS011;1994;48.640;8.894;2022-09-25T00:08:54;14.13;;;8.33;;
3959;SDS011;1994;48.640;8.894;2022-09-25T00:11:28;12.20;;;7.93;;
3959;SDS011;1994;48.640;8.894;2022-09-25T00:13:57;13.83;;;9.53;;
3959;SDS011;1994;48.640;8.894;2022-09-25T00:16:26;14.93;;;8.90;;
3959;SDS011;1994;48.640;8.894;2022-09-25T00:18:55;13.33;;;8.60;;
3959;SDS011;1994;48.640;8.894;2022-09-25T00:21:40;10.90;;;7.83;;
3959;SDS011;1994;48.640;8.894;2022-09-25T00:24:08;13.03;;;8.57;;
3959;SDS011;1994;48.640;8.894;2022-09-25T00:26:36;11.63;;;7.90;;
3959;SDS011;1994;48.640;8.894;2022-09-25T00:29:04;16.00;;;10.03;;
3959;SDS011;1994;48.640;8.894;2022-09-25T00:31:31;15.30;;;9.70;;
3959;SDS011;1994;48.640;8.894;2022-09-25T00:33:58;19.70;;;11.03;;
3959;SDS011;1994;48.640;8.894;2022-09-25T00:36:25;24.73;;;10.50;;
3959;SDS011;1994;48.640;8.894;2022-09-25T00:38:52;16.70;;;10.53;;
3959;SDS011;1994;48.640;8.894;2022-09-25T00:41:19;65.60;;;13.40;;
3959;SDS011;1994;48.640;8.894;2022-09-25T00:43:48;91.23;;;13.50;;
3959;SDS011;1994;48.640;8.894;2022-09-25T00:48:47;86.07;;;11.90;;
3959;SDS011;1994;48.640;8.894;2022-09-25T00:51:44;84.53;;;13.40;;
3959;SDS011;1994;48.640;8.894;2022-09-25T00:54:18;50.27;;;10.80;;
3959;SDS011;1994;48.640;8.894;2022-09-25T00:56:55;83.00;;;12.37;;
3959;SDS011;1994;48.640;8.894;2022-09-25T00:59:26;45.43;;;11.97;;
3959;SDS011;1994;48.640;8.894;2022-09-25T01:02:03;24.50;;;11.27;;
3959;SDS011;1994;48.640;8.894;2022-09-25T01:04:30;36.53;;;11.57;;
3959;SDS011;1994;48.640;8.894;2022-09-25T01:06:58;32.50;;;10.77;;
3959;SDS011;1994;48.640;8.894;2022-09-25T01:09:24;37.00;;;11.63;;
3959;SDS011;1994;48.640;8.894;2022-09-25T01:11:51;25.50;;;10.20;;
3959;SDS011;1994;48.640;8.894;2022-09-25T01:14:18;30.13;;;10.73;;
3959;SDS011;1994;48.640;8.894;2022-09-25T01:19:43;23.10;;;12.10;;
3959;SDS011;1994;48.640;8.894;2022-09-25T01:37:22;14.63;;;9.87;;
3959;SDS011;1994;48.640;8.894;2022-09-25T01:43:25;15.87;;;9.90;;
3959;SDS011;1994;48.640;8.894;2022-09-25T01:46:22;13.87;;;8.77;;
3959;SDS011;1994;48.640;8.894;2022-09-25T01:48:55;10.83;;;7.90;;
3959;SDS011;1994;48.640;8.894;2022-09-25T01:51:40;14.23;;;8.70;;
3959;SDS011;1994;48.640;8.894;2022-09-25T01:54:13;14.90;;;8.37;;
3959;SDS011;1994;48.640;8.894;2022-09-25T01:56:55;12.27;;;7.97;;
3959;SDS011;1994;48.640;8.894;2022-09-25T02:02:21;9.93;;;6.93;;
3959;SDS011;1994;48.640;8.894;2022-09-25T02:04:58;14.30;;;7.57;;
3959;SDS011;1994;48.640;8.894;2022-09-25T02:07:43;9.53;;;6.50;;
3959;SDS011;1994;48.640;8.894;2022-09-25T02:10:17;10.60;;;6.80;;
3959;SDS011;1994;48.640;8.894;2022-09-25T02:12:51;11.20;;;6.53;;
3959;SDS011;1994;48.640;8.894;2022-09-25T02:15:25;9.03;;;6.50;;
3959;SDS011;1994;48.640;8.894;2022-09-25T02:17:59;12.43;;;7.97;;
3959;SDS011;1994;48.640;8.894;2022-09-25T02:20:49;10.90;;;7.43;;
3959;SDS011;1994;48.640;8.894;2022-09-25T02:26:08;12.43;;;7.43;;
3959;SDS011;1994;48.640;8.894;2022-09-25T02:28:40;11.90;;;7.67;;
3959;SDS011;1994;48.640;8.894;2022-09-25T02:31:09;12.73;;;7.80;;
3959;SDS011;1994;48.640;8.894;2022-09-25T02:33:37;18.70;;;9.10;;
3959;SDS011;1994;48.640;8.894;2022-09-25T02:36:03;12.33;;;9.00;;
3959;SDS011;1994;48.640;8.894;2022-09-25T02:38:30;11.03;;;7.80;;
3959;SDS011;1994;48.640;8.894;2022-09-25T02:41:33;18.43;;;9.63;;
3959;SDS011;1994;48.640;8.894;2022-09-25T02:50:20;19.00;;;11.10;;
3959;SDS011;1994;48.640;8.894;2022-09-25T02:53:06;34.13;;;12.03;;
3959;SDS011;1994;48.640;8.894;2022-09-25T02:55:55;19.77;;;8.73;;
3959;SDS011;1994;48.640;8.894;2022-09-25T02:58:57;18.13;;;10.40;;
3959;SDS011;1994;48.640;8.894;2022-09-25T03:01:33;12.37;;;8.10;;
3959;SDS011;1994;48.640;8.894;2022-09-25T03:04:05;13.77;;;8.57;;
3959;SDS011;1994;48.640;8.894;2022-09-25T03:06:32;13.20;;;8.70;;
3959;SDS011;1994;48.640;8.894;2022-09-25T03:08:58;12.60;;;8.03;;
3959;SDS011;1994;48.640;8.894;2022-09-25T03:11:26;14.60;;;7.97;;
3959;SDS011;1994;48.640;8.894;2022-09-25T03:13:56;12.00;;;7.97;;
3959;SDS011;1994;48.640;8.894;2022-09-25T03:19:15;13.83;;;8.13;;
3959;SDS011;1994;48.640;8.894;2022-09-25T03:21:44;13.47;;;9.00;;
3959;SDS011;1994;48.640;8.894;2022-09-25T03:24:11;14.93;;;8.90;;
3959;SDS011;1994;48.640;8.894;2022-09-25T03:26:37;15.50;;;9.80;;
3959;SDS011;1994;48.640;8.894;2022-09-25T03:29:04;14.63;;;9.37;;
3959;SDS011;1994;48.640;8.894;2022-09-25T03:31:30;10.90;;;7.83;;
3959;SDS011;1994;48.640;8.894;2022-09-25T03:33:56;10.50;;;8.00;;
3959;SDS011;1994;48.640;8.894;2022-09-25T03:36:23;13.27;;;7.97;;
3959;SDS011;1994;48.640;8.894;2022-09-25T03:38:55;12.27;;;8.07;;
3959;SDS011;1994;48.640;8.894;2022-09-25T03:41:24;12.00;;;8.13;;
3959;SDS011;1994;48.640;8.894;2022-09-25T03:43:53;9.53;;;7.40;;
3959;SDS011;1994;48.640;8.894;2022-09-25T03:46:21;10.33;;;7.00;;
3959;SDS011;1994;48.640;8.894;2022-09-25T03:48:50;12.13;;;8.50;;
3959;SDS011;1994;48.640;8.894;2022-09-25T03:51:17;16.53;;;9.43;;
3959;SDS011;1994;48.640;8.894;2022-09-25T03:53:44;12.40;;;7.33;;
3959;SDS011;1994;48.640;8.894;2022-09-25T03:56:11;10.60;;;7.07;;
3959;SDS011;1994;48.640;8.894;2022-09-25T03:58:41;9.60;;;6.77;;
3959;SDS011;1994;48.640;8.894;2022-09-25T04:01:07;11.60;;;7.40;;
3959;SDS011;1994;48.640;8.894;2022-09-25T04:03:34;10.60;;;7.27;;
3959;SDS011;1994;48.640;8.894;2022-09-25T04:06:01;12.80;;;6.77;;
3959;SDS011;1994;48.640;8.894;2022-09-25T04:08:30;11.10;;;6.97;;
3959;SDS011;1994;48.640;8.894;2022-09-25T04:10:57;11.17;;;7.23;;
3959;SDS011;1994;48.640;8.894;2022-09-25T04:13:31;6.80;;;5.70;;
3959;SDS011;1994;48.640;8.894;2022-09-25T04:16:00;10.00;;;6.83;;
3959;SDS011;1994;48.640;8.894;2022-09-25T04:18:28;9.07;;;7.20;;
3959;SDS011;1994;48.640;8.894;2022-09-25T04:20:55;10.30;;;7.20;;
3959;SDS011;1994;48.640;8.894;2022-09-25T04:23:24;8.67;;;7.20;;
3959;SDS011;1994;48.640;8.894;2022-09-25T04:25:50;10.70;;;7.07;;
3959;SDS011;1994;48.640;8.894;2022-09-25T04:28:17;10.23;;;6.67;;
3959;SDS011;1994;48.640;8.894;2022-09-25T04:30:42;13.57;;;7.40;;
3959;SDS011;1994;48.640;8.894;2022-09-25T04:33:08;10.63;;;7.67;;
3959;SDS011;1994;48.640;8.894;2022-09-25T04:35:53;9.63;;;6.77;;
3959;SDS011;1994;48.640;8.894;2022-09-25T04:38:20;9.73;;;7.87;;
3959;SDS011;1994;48.640;8.894;2022-09-25T04:40:46;11.70;;;8.23;;
3959;SDS011;1994;48.640;8.894;2022-09-25T04:43:12;12.20;;;7.30;;
3959;SDS011;1994;48.640;8.894;2022-09-25T04:45:38;9.97;;;7.47;;
3959;SDS011;1994;48.640;8.894;2022-09-25T04:48:04;13.40;;;8.43;;
3959;SDS011;1994;48.640;8.894;2022-09-25T04:50:30;14.17;;;8.03;;
3959;SDS011;1994;48.640;8.894;2022-09-25T04:52:57;12.67;;;7.60;;
3959;SDS011;1994;48.640;8.894;2022-09-25T04:55:24;11.00;;;7.00;;
3959;SDS011;1994;48.640;8.894;2022-09-25T04:57:51;12.43;;;8.10;;
3959;SDS011;1994;48.640;8.894;2022-09-25T05:00:20;10.60;;;7.27;;
3959;SDS011;1994;48.640;8.894;2022-09-25T05:02:46;10.87;;;7.10;;
3959;SDS011;1994;48.640;8.894;2022-09-25T05:05:13;9.37;;;7.17;;
3959;SDS011;1994;48.640;8.894;2022-09-25T05:07:39;12.20;;;6.50;;
3959;SDS011;1994;48.640;8.894;2022-09-25T05:10:18;9.93;;;6.33;;
3959;SDS011;1994;48.640;8.894;2022-09-25T05:12:45;9.33;;;6.87;;
3959;SDS011;1994;48.640;8.894;2022-09-25T05:15:14;7.70;;;6.07;;
3959;SDS011;1994;48.640;8.894;2022-09-25T05:17:40;7.87;;;5.70;;
3959;SDS011;1994;48.640;8.894;2022-09-25T05:20:06;7.03;;;5.77;;
3959;SDS011;1994;48.640;8.894;2022-09-25T05:22:33;7.20;;;5.73;;
3959;SDS011;1994;48.640;8.894;2022-09-25T05:24:58;6.37;;;5.13;;
3959;SDS011;1994;48.640;8.894;2022-09-25T05:27:24;8.80;;;7.70;;
3959;SDS011;1994;48.640;8.894;2022-09-25T05:29:50;8.60;;;7.00;;
3959;SDS011;1994;48.640;8.894;2022-09-25T05:32:15;6.77;;;5.33;;
3959;SDS011;1994;48.640;8.894;2022-09-25T05:34:42;9.57;;;6.50;;
3959;SDS011;1994;48.640;8.894;2022-09-25T05:37:08;12.53;;;6.00;;
3959;SDS011;1994;48.640;8.894;2022-09-25T05:39:34;8.77;;;6.33;;
3959;SDS011;1994;48.640;8.894;2022-09-25T05:41:59;11.37;;;6.90;;
3959;SDS011;1994;48.640;8.894;2022-09-25T05:44:26;12.80;;;7.53;;
3959;SDS011;1994;48.640;8.894;2022-09-25T05:46:52;18.03;;;7.57;;
3959;SDS011;1994;48.640;8.894;2022-09-25T05:49:20;9.70;;;6.90;;
3959;SDS011;1994;48.640;8.894;2022-09-25T05:51:47;11.93;;;7.90;;
3959;SDS011;1994;48.640;8.894;2022-09-25T05:54:13;12.20;;;7.27;;
3959;SDS011;1994;48.640;8.894;2022-09-25T05:56:39;12.10;;;7.20;;
3959;SDS011;1994;48.640;8.894;2022-09-25T05:59:04;13.03;;;7.67;;
3959;SDS011;1994;48.640;8.894;2022-09-25T06:01:30;8.40;;;6.43;;
3959;SDS011;1994;48.640;8.894;2022-09-25T06:03:56;10.80;;;6.10;;
3959;SDS011;1994;48.640;8.894;2022-09-25T06:06:22;9.03;;;5.80;;
3959;SDS011;1994;48.640;8.894;2022-09-25T06:08:47;13.97;;;7.40;;
3959;SDS011;1994;48.640;8.894;2022-09-25T06:11:13;12.47;;;8.20;;
3959;SDS011;1994;48.640;8.894;2022-09-25T06:13:39;14.43;;;6.67;;
3959;SDS011;1994;48.640;8.894;2022-09-25T06:16:10;12.90;;;7.50;;
3959;SDS011;1994;48.640;8.894;2022-09-25T06:18:43;9.90;;;7.00;;
3959;SDS011;1994;48.640;8.894;2022-09-25T06:21:12;13.40;;;7.67;;
3959;SDS011;1994;48.640;8.894;2022-09-25T06:23:39;12.53;;;7.57;;
3959;SDS011;1994;48.640;8.894;2022-09-25T06:26:07;14.83;;;8.23;;
3959;SDS011;1994;48.640;8.894;2022-09-25T06:28:34;13.37;;;7.20;;
3959;SDS011;1994;48.640;8.894;2022-09-25T06:31:01;12.80;;;7.27;;
3959;SDS011;1994;48.640;8.894;2022-09-25T06:33:28;9.00;;;6.50;;
3959;SDS011;1994;48.640;8.894;2022-09-25T06:35:54;13.70;;;7.77;;
3959;SDS011;1994;48.640;8.894;2022-09-25T06:38:20;13.77;;;8.23;;
3959;SDS011;1994;48.640;8.894;2022-09-25T06:40:45;12.87;;;7.73;;
3959;SDS011;1994;48.640;8.894;2022-09-25T06:43:12;20.33;;;8.20;;
3959;SDS011;1994;48.640;8.894;2022-09-25T06:45:40;17.40;;;9.70;;
3959;SDS011;1994;48.640;8.894;2022-09-25T06:48:10;39.57;;;8.93;;
3959;SDS011;1994;48.640;8.894;2022-09-25T06:50:45;38.60;;;10.70;;
3959;SDS011;1994;48.640;8.894;2022-09-25T06:53:20;66.33;;;11.80;;
3959;SDS011;1994;48.640;8.894;2022-09-25T06:55:49;32.73;;;11.70;;
3959;SDS011;1994;48.640;8.894;2022-09-25T06:58:17;19.37;;;9.93;;
3959;SDS011;1994;48.640;8.894;2022-09-25T07:00:50;17.77;;;9.77;;
3959;SDS011;1994;48.640;8.894;2022-09-25T07:03:18;61.97;;;13.47;;
3959;SDS011;1994;48.640;8.894;2022-09-25T07:06:03;20.77;;;9.43;;
3959;SDS011;1994;48.640;8.894;2022-09-25T07:08:31;61.67;;;12.50;;
3959;SDS011;1994;48.640;8.894;2022-09-25T07:10:57;54.83;;;12.57;;
3959;SDS011;1994;48.640;8.894;2022-09-25T07:13:25;51.03;;;12.43;;
3959;SDS011;1994;48.640;8.894;2022-09-25T07:15:54;22.47;;;10.03;;
3959;SDS011;1994;48.640;8.894;2022-09-25T07:18:23;52.33;;;13.60;;
3959;SDS011;1994;48.640;8.894;2022-09-25T07:20:50;20.80;;;11.03;;
3959;SDS011;1994;48.640;8.894;2022-09-25T07:23:18;22.23;;;12.00;;
3959;SDS011;1994;48.640;8.894;2022-09-25T07:25:46;50.30;;;13.37;;
3959;SDS011;1994;48.640;8.894;2022-09-25T07:28:13;31.50;;;12.70;;
3959;SDS011;1994;48.640;8.894;2022-09-25T07:30:42;86.43;;;17.93;;
3959;SDS011;1994;48.640;8.894;2022-09-25T07:33:08;50.33;;;15.80;;
3959;SDS011;1994;48.640;8.894;2022-09-25T07:35:34;21.77;;;11.50;;
3959;SDS011;1994;48.640;8.894;2022-09-25T07:38:01;73.50;;;12.80;;
3959;SDS011;1994;48.640;8.894;2022-09-25T07:40:28;82.53;;;13.20;;
3959;SDS011;1994;48.640;8.894;2022-09-25T07:42:58;18.97;;;10.30;;
3959;SDS011;1994;48.640;8.894;2022-09-25T07:45:28;25.10;;;12.60;;
3959;SDS011;1994;48.640;8.894;2022-09-25T07:47:56;18.17;;;10.10;;
3959;SDS011;1994;48.640;8.894;2022-09-25T07:50:22;23.00;;;10.77;;
3959;SDS011;1994;48.640;8.894;2022-09-25T07:52:48;17.83;;;10.10;;
3959;SDS011;1994;48.640;8.894;2022-09-25T07:55:14;23.37;;;12.33;;
3959;SDS011;1994;48.640;8.894;2022-09-25T07:57:40;29.97;;;11.70;;
3959;SDS011;1994;48.640;8.894;2022-09-25T08:00:08;24.07;;;9.43;;
3959;SDS011;1994;48.640;8.894;2022-09-25T08:02:35;19.17;;;10.53;;
3959;SDS011;1994;48.640;8.894;2022-09-25T08:05:01;20.13;;;9.53;;
3959;SDS011;1994;48.640;8.894;2022-09-25T08:07:27;19.50;;;11.13;;
3959;SDS011;1994;48.640;8.894;2022-09-25T08:09:53;16.80;;;9.07;;
3959;SDS011;1994;48.640;8.894;2022-09-25T08:12:19;16.50;;;9.90;;
3959;SDS011;1994;48.640;8.894;2022-09-25T08:14:49;31.63;;;11.77;;
3959;SDS011;1994;48.640;8.894;2022-09-25T08:17:16;21.10;;;12.10;;
3959;SDS011;1994;48.640;8.894;2022-09-25T08:19:42;18.10;;;11.10;;
3959;SDS011;1994;48.640;8.894;2022-09-25T08:22:08;18.83;;;10.17;;
3959;SDS011;1994;48.640;8.894;2022-09-25T08:24:34;18.30;;;10.13;;
3959;SDS011;1994;48.640;8.894;2022-09-25T08:27:00;20.07;;;11.30;;
3959;SDS011;1994;48.640;8.894;2022-09-25T08:29:25;16.70;;;10.57;;
3959;SDS011;1994;48.640;8.894;2022-09-25T08:31:51;18.60;;;11.00;;
3959;SDS011;1994;48.640;8.894;2022-09-25T08:34:17;19.97;;;11.23;;
3959;SDS011;1994;48.640;8.894;2022-09-25T08:36:43;16.67;;;10.73;;
3959;SDS011;1994;48.640;8.894;2022-09-25T08:39:11;18.03;;;10.40;;
3959;SDS011;1994;48.640;8.894;2022-09-25T08:41:45;17.13;;;11.33;;
3959;SDS011;1994;48.640;8.894;2022-09-25T08:47:08;15.40;;;10.23;;
3959;SDS011;1994;48.640;8.894;2022-09-25T08:52:34;17.70;;;11.17;;
3959;SDS011;1994;48.640;8.894;2022-09-25T08:55:07;18.13;;;10.67;;
3959;SDS011;1994;48.640;8.894;2022-09-25T08:58:18;15.50;;;9.77;;
3959;SDS011;1994;48.640;8.894;2022-09-25T09:00:50;16.40;;;10.93;;
3959;SDS011;1994;48.640;8.894;2022-09-25T09:03:24;14.03;;;9.77;;
3959;SDS011;1994;48.640;8.894;2022-09-25T09:05:56;14.63;;;8.80;;
3959;SDS011;1994;48.640;8.894;2022-09-25T09:08:32;13.53;;;9.07;;
3959;SDS011;1994;48.640;8.894;2022-09-25T09:11:06;17.00;;;9.63;;
3959;SDS011;1994;48.640;8.894;2022-09-25T09:13:48;13.60;;;9.37;;
3959;SDS011;1994;48.640;8.894;2022-09-25T09:18:50;15.47;;;10.40;;
3959;SDS011;1994;48.640;8.894;2022-09-25T09:29:46;16.97;;;9.80;;
3959;SDS011;1994;48.640;8.894;2022-09-25T09:32:41;13.00;;;7.70;;
3959;SDS011;1994;48.640;8.894;2022-09-25T09:39:49;12.40;;;8.30;;
3959;SDS011;1994;48.640;8.894;2022-09-25T09:54:13;25.83;;;16.63;;
3959;SDS011;1994;48.640;8.894;2022-09-25T09:56:46;11.97;;;8.57;;
3959;SDS011;1994;48.640;8.894;2022-09-25T09:59:16;13.80;;;8.77;;
3959;SDS011;1994;48.640;8.894;2022-09-25T10:01:49;10.03;;;7.80;;
3959;SDS011;1994;48.640;8.894;2022-09-25T10:04:40;10.10;;;7.43;;
3959;SDS011;1994;48.640;8.894;2022-09-25T10:07:12;13.43;;;7.90;;
3959;SDS011;1994;48.640;8.894;2022-09-25T10:09:42;10.27;;;6.80;;
3959;SDS011;1994;48.640;8.894;2022-09-25T10:14:43;9.80;;;7.53;;
3959;SDS011;1994;48.640;8.894;2022-09-25T10:17:11;9.70;;;7.17;;
3959;SDS011;1994;48.640;8.894;2022-09-25T10:19:42;11.67;;;6.93;;
3959;SDS011;1994;48.640;8.894;2022-09-25T10:22:22;14.30;;;7.00;;
3959;SDS011;1994;48.640;8.894;2022-09-25T10:24:53;10.33;;;7.27;;
3959;SDS011;1994;48.640;8.894;2022-09-25T10:27:32;8.37;;;6.40;;
3959;SDS011;1994;48.640;8.894;2022-09-25T10:38:03;14.80;;;7.47;;
3959;SDS011;1994;48.640;8.894;2022-09-25T10:40:31;12.90;;;8.40;;
3959;SDS011;1994;48.640;8.894;2022-09-25T10:43:14;9.30;;;6.53;;
3959;SDS011;1994;48.640;8.894;2022-09-25T10:45:40;12.13;;;7.67;;
3959;SDS011;1994;48.640;8.894;2022-09-25T10:48:26;9.60;;;6.13;;
3959;SDS011;1994;48.640;8.894;2022-09-25T10:51:18;7.90;;;6.60;;
3959;SDS011;1994;48.640;8.894;2022-09-25T10:53:46;13.43;;;7.23;;
3959;SDS011;1994;48.640;8.894;2022-09-25T10:56:15;11.33;;;6.10;;
3959;SDS011;1994;48.640;8.894;2022-09-25T10:58:59;8.93;;;6.90;;
3959;SDS011;1994;48.640;8.894;2022-09-25T11:01:34;8.37;;;6.30;;
3959;SDS011;1994;48.640;8.894;2022-09-25T11:04:16;9.67;;;6.60;;
3959;SDS011;1994;48.640;8.894;2022-09-25T11:06:56;11.80;;;7.70;;
3959;SDS011;1994;48.640;8.894;2022-09-25T11:09:26;9.80;;;6.90;;
3959;SDS011;1994;48.640;8.894;2022-09-25T11:14:46;11.37;;;7.90;;
3959;SDS011;1994;48.640;8.894;2022-09-25T11:17:38;7.83;;;6.70;;
3959;SDS011;1994;48.640;8.894;2022-09-25T11:22:49;10.60;;;6.73;;
3959;SDS011;1994;48.640;8.894;2022-09-25T11:25:55;10.93;;;6.97;;
3959;SDS011;1994;48.640;8.894;2022-09-25T11:28:43;11.57;;;7.33;;
3959;SDS011;1994;48.640;8.894;2022-09-25T11:37:19;15.33;;;8.10;;
3959;SDS011;1994;48.640;8.894;2022-09-25T11:40:26;11.43;;;7.60;;
3959;SDS011;1994;48.640;8.894;2022-09-25T11:43:32;13.87;;;7.90;;
3959;SDS011;1994;48.640;8.894;2022-09-25T11:46:21;13.73;;;8.50;;
3959;SDS011;1994;48.640;8.894;2022-09-25T11:49:26;12.23;;;8.30;;
3959;SDS011;1994;48.640;8.894;2022-09-25T11:52:09;13.07;;;8.40;;
3959;SDS011;1994;48.640;8.894;2022-09-25T11:54:54;10.30;;;7.97;;
3959;SDS011;1994;48.640;8.894;2022-09-25T12:15:24;14.97;;;9.90;;
3959;SDS011;1994;48.640;8.894;2022-09-25T12:21:49;20.10;;;11.37;;
3959;SDS011;1994;48.640;8.894;2022-09-25T12:30:17;17.80;;;11.67;;
3959;SDS011;1994;48.640;8.894;2022-09-25T12:36:08;15.60;;;10.57;;
3959;SDS011;1994;48.640;8.894;2022-09-25T12:38:46;20.07;;;11.10;;
3959;SDS011;1994;48.640;8.894;2022-09-25T12:44:46;14.43;;;10.57;;
3959;SDS011;1994;48.640;8.894;2022-09-25T12:47:44;18.50;;;10.33;;
3959;SDS011;1994;48.640;8.894;2022-09-25T12:56:11;16.03;;;10.17;;
3959;SDS011;1994;48.640;8.894;2022-09-25T12:59:05;13.13;;;8.60;;
3959;SDS011;1994;48.640;8.894;2022-09-25T13:05:05;14.30;;;9.73;;
3959;SDS011;1994;48.640;8.894;2022-09-25T13:10:45;9.23;;;7.60;;
3959;SDS011;1994;48.640;8.894;2022-09-25T13:13:38;12.60;;;7.67;;
3959;SDS011;1994;48.640;8.894;2022-09-25T13:16:11;11.87;;;7.63;;
3959;SDS011;1994;48.640;8.894;2022-09-25T13:18:45;11.27;;;8.10;;
3959;SDS011;1994;48.640;8.894;2022-09-25T13:21:23;13.67;;;9.30;;
3959;SDS011;1994;48.640;8.894;2022-09-25T13:23:58;13.87;;;9.63;;
3959;SDS011;1994;48.640;8.894;2022-09-25T13:26:24;15.70;;;10.00;;
3959;SDS011;1994;48.640;8.894;2022-09-25T13:31:25;16.33;;;9.87;;
3959;SDS011;1994;48.640;8.894;2022-09-25T13:38:50;14.07;;;9.30;;
3959;SDS011;1994;48.640;8.894;2022-09-25T13:41:57;12.60;;;8.53;;
3959;SDS011;1994;48.640;8.894;2022-09-25T13:47:31;15.40;;;9.67;;
3959;SDS011;1994;48.640;8.894;2022-09-25T14:00:50;18.53;;;11.30;;
3959;SDS011;1994;48.640;8.894;2022-09-25T14:06:18;16.60;;;9.90;;
3959;SDS011;1994;48.640;8.894;2022-09-25T14:08:52;19.30;;;11.30;;
3959;SDS011;1994;48.640;8.894;2022-09-25T14:11:23;13.43;;;8.57;;
3959;SDS011;1994;48.640;8.894;2022-09-25T14:13:56;16.47;;;9.23;;
3959;SDS011;1994;48.640;8.894;2022-09-25T14:16:32;17.40;;;10.87;;
3959;SDS011;1994;48.640;8.894;2022-09-25T14:19:07;14.67;;;10.13;;
3959;SDS011;1994;48.640;8.894;2022-09-25T14:21:33;12.47;;;9.40;;
3959;SDS011;1994;48.640;8.894;2022-09-25T14:26:53;14.43;;;9.60;;
3959;SDS011;1994;48.640;8.894;2022-09-25T14:29:26;18.47;;;9.37;;
3959;SDS011;1994;48.640;8.894;2022-09-25T14:37:43;17.53;;;11.03;;
3959;SDS011;1994;48.640;8.894;2022-09-25T14:47:40;13.13;;;8.50;;
3959;SDS011;1994;48.640;8.894;2022-09-25T14:50:15;12.67;;;8.27;;
3959;SDS011;1994;48.640;8.894;2022-09-25T14:52:50;12.53;;;8.40;;
3959;SDS011;1994;48.640;8.894;2022-09-25T14:55:24;11.33;;;8.40;;
3959;SDS011;1994;48.640;8.894;2022-09-25T14:58:02;10.10;;;7.03;;
3959;SDS011;1994;48.640;8.894;2022-09-25T15:00:33;13.40;;;8.73;;
3959;SDS011;1994;48.640;8.894;2022-09-25T15:02:59;13.80;;;8.10;;
3959;SDS011;1994;48.640;8.894;2022-09-25T15:05:30;10.10;;;7.43;;
3959;SDS011;1994;48.640;8.894;2022-09-25T15:07:58;11.50;;;7.70;;
3959;SDS011;1994;48.640;8.894;2022-09-25T15:10:43;15.17;;;8.23;;
3959;SDS011;1994;48.640;8.894;2022-09-25T15:15:43;11.20;;;8.50;;
3959;SDS011;1994;48.640;8.894;2022-09-25T15:18:31;13.37;;;8.27;;
3959;SDS011;1994;48.640;8.894;2022-09-25T15:21:10;12.17;;;8.90;;
3959;SDS011;1994;48.640;8.894;2022-09-25T15:23:45;14.20;;;8.23;;
3959;SDS011;1994;48.640;8.894;2022-09-25T15:26:12;9.53;;;6.70;;
3959;SDS011;1994;48.640;8.894;2022-09-25T15:28:42;11.47;;;7.30;;
3959;SDS011;1994;48.640;8.894;2022-09-25T15:31:08;11.27;;;7.03;;
3959;SDS011;1994;48.640;8.894;2022-09-25T15:33:35;7.90;;;6.10;;
3959;SDS011;1994;48.640;8.894;2022-09-25T15:38:52;25.07;;;17.87;;
3959;SDS011;1994;48.640;8.894;2022-09-25T15:41:24;18.50;;;12.80;;
3959;SDS011;1994;48.640;8.894;2022-09-25T15:43:50;13.70;;;8.03;;
3959;SDS011;1994;48.640;8.894;2022-09-25T15:46:25;8.40;;;6.97;;
3959;SDS011;1994;48.640;8.894;2022-09-25T15:48:56;13.20;;;7.30;;
3959;SDS011;1994;48.640;8.894;2022-09-25T15:51:24;8.77;;;7.43;;
3959;SDS011;1994;48.640;8.894;2022-09-25T15:53:55;9.30;;;7.27;;
3959;SDS011;1994;48.640;8.894;2022-09-25T15:56:57;15.73;;;8.90;;
3959;SDS011;1994;48.640;8.894;2022-09-25T15:59:30;15.23;;;10.13;;
3959;SDS011;1994;48.640;8.894;2022-09-25T16:02:27;11.10;;;6.93;;
3959;SDS011;1994;48.640;8.894;2022-09-25T16:05:15;10.60;;;7.50;;
3959;SDS011;1994;48.640;8.894;2022-09-25T16:07:45;11.37;;;7.23;;
3959;SDS011;1994;48.640;8.894;2022-09-25T16:17:50;18.53;;;11.97;;
3959;SDS011;1994;48.640;8.894;2022-09-25T16:22:49;10.43;;;7.80;;
3959;SDS011;1994;48.640;8.894;2022-09-25T16:25:21;6.57;;;5.03;;
3959;SDS011;1994;48.640;8.894;2022-09-25T16:27:52;6.63;;;4.70;;
3959;SDS011;1994;48.640;8.894;2022-09-25T16:30:24;5.73;;;4.10;;
3959;SDS011;1994;48.640;8.894;2022-09-25T16:32:51;12.20;;;6.17;;
3959;SDS011;1994;48.640;8.894;2022-09-25T16:35:23;30.10;;;14.77;;
3959;SDS011;1994;48.640;8.894;2022-09-25T16:38:02;25.83;;;13.67;;
3959;SDS011;1994;48.640;8.894;2022-09-25T16:40:31;14.00;;;7.60;;
3959;SDS011;1994;48.640;8.894;2022-09-25T16:43:02;5.23;;;3.50;;
3959;SDS011;1994;48.640;8.894;2022-09-25T16:45:30;4.13;;;3.33;;
3959;SDS011;1994;48.640;8.894;2022-09-25T16:48:44;4.53;;;3.03;;
3959;SDS011;1994;48.640;8.894;2022-09-25T16:51:02;3.00;;;2.70;;
3959;SDS011;1994;48.640;8.894;2022-09-25T16:53:35;3.77;;;2.70;;
3959;SDS011;1994;48.640;8.894;2022-09-25T16:56:02;4.27;;;3.53;;
3959;SDS011;1994;48.640;8.894;2022-09-25T16:58:28;3.13;;;2.83;;
3959;SDS011;1994;48.640;8.894;2022-09-25T17:00:54;3.93;;;3.20;;
3959;SDS011;1994;48.640;8.894;2022-09-25T17:03:20;3.37;;;2.77;;
3959;SDS011;1994;48.640;8.894;2022-09-25T17:05:46;5.17;;;3.50;;
3959;SDS011;1994;48.640;8.894;2022-09-25T17:10:44;8.50;;;5.47;;
3959;SDS011;1994;48.640;8.894;2022-09-25T17:13:15;10.43;;;5.30;;
3959;SDS011;1994;48.640;8.894;2022-09-25T17:15:43;5.80;;;3.50;;
3959;SDS011;1994;48.640;8.894;2022-09-25T17:18:16;9.13;;;4.17;;
3959;SDS011;1994;48.640;8.894;2022-09-25T17:20:45;6.77;;;4.60;;
3959;SDS011;1994;48.640;8.894;2022-09-25T17:23:15;7.10;;;5.80;;
3959;SDS011;1994;48.640;8.894;2022-09-25T17:28:27;12.47;;;7.50;;
3959;SDS011;1994;48.640;8.894;2022-09-25T17:30:54;7.57;;;5.33;;
3959;SDS011;1994;48.640;8.894;2022-09-25T17:33:20;4.47;;;3.83;;
3959;SDS011;1994;48.640;8.894;2022-09-25T17:38:22;6.07;;;4.33;;
3959;SDS011;1994;48.640;8.894;2022-09-25T17:40:49;4.87;;;3.60;;
3959;SDS011;1994;48.640;8.894;2022-09-25T17:43:16;7.33;;;4.10;;
3959;SDS011;1994;48.640;8.894;2022-09-25T17:48:16;6.83;;;5.37;;
3959;SDS011;1994;48.640;8.894;2022-09-25T17:50:48;7.20;;;5.90;;
3959;SDS011;1994;48.640;8.894;2022-09-25T17:53:22;10.90;;;5.70;;
3959;SDS011;1994;48.640;8.894;2022-09-25T17:55:53;7.70;;;4.63;;
3959;SDS011;1994;48.640;8.894;2022-09-25T17:58:20;15.30;;;7.57;;
3959;SDS011;1994;48.640;8.894;2022-09-25T18:00:47;11.20;;;6.80;;
3959;SDS011;1994;48.640;8.894;2022-09-25T18:03:15;19.93;;;11.10;;
3959;SDS011;1994;48.640;8.894;2022-09-25T18:05:42;23.37;;;10.40;;
3959;SDS011;1994;48.640;8.894;2022-09-25T18:08:09;19.40;;;10.37;;
3959;SDS011;1994;48.640;8.894;2022-09-25T18:10:36;12.80;;;8.63;;
3959;SDS011;1994;48.640;8.894;2022-09-25T18:13:03;23.83;;;10.23;;
3959;SDS011;1994;48.640;8.894;2022-09-25T18:15:31;13.73;;;7.90;;
3959;SDS011;1994;48.640;8.894;2022-09-25T18:18:01;8.30;;;6.80;;
3959;SDS011;1994;48.640;8.894;2022-09-25T18:20:26;13.67;;;8.50;;
3959;SDS011;1994;48.640;8.894;2022-09-25T18:23:11;11.47;;;8.50;;
3959;SDS011;1994;48.640;8.894;2022-09-25T18:25:38;19.33;;;11.57;;
3959;SDS011;1994;48.640;8.894;2022-09-25T18:28:05;12.10;;;7.57;;
3959;SDS011;1994;48.640;8.894;2022-09-25T18:30:32;12.37;;;8.07;;
3959;SDS011;1994;48.640;8.894;2022-09-25T18:32:58;11.70;;;7.47;;
3959;SDS011;1994;48.640;8.894;2022-09-25T18:35:24;10.27;;;7.63;;
3959;SDS011;1994;48.640;8.894;2022-09-25T18:37:50;11.30;;;7.80;;
3959;SDS011;1994;48.640;8.894;2022-09-25T18:40:16;10.73;;;7.43;;
3959;SDS011;1994;48.640;8.894;2022-09-25T18:42:44;11.97;;;7.93;;
3959;SDS011;1994;48.640;8.894;2022-09-25T18:45:12;11.00;;;7.60;;
3959;SDS011;1994;48.640;8.894;2022-09-25T18:47:39;11.70;;;7.87;;
3959;SDS011;1994;48.640;8.894;2022-09-25T18:50:06;10.53;;;7.37;;
3959;SDS011;1994;48.640;8.894;2022-09-25T18:52:34;11.87;;;7.30;;
3959;SDS011;1994;48.640;8.894;2022-09-25T18:55:01;13.73;;;8.80;;